Time;durP1;ratioP1;P1;durP2;ratioP2;P2;SDS_P1;SDS_P2;PMS_P1;PMS_P2;Temp;Humidity;BMP_temperature;BMP_pressure;BME280_temperature;BME280_humidity;BME280_pressure;Samples;Min_cycle;Max_cycle;Signal;HPM_P1;HPM_P2
2023/05/07 00:01:46;;;;;;;3.07;1.63;;;;;;;;;;5060358;28;20218;-63
2023/05/07 00:04:14;;;;;;;2.80;1.50;;;;;;;;;;5060238;28;20625;-63
2023/05/07 00:06:43;;;;;;;3.60;1.67;;;;;;;;;;5059990;28;20373;-63
2023/05/07 00:09:11;;;;;;;1.57;1.47;;;;;;;;;;5060221;28;20219;-63
2023/05/07 00:11:39;;;;;;;2.80;1.43;;;;;;;;;;5060287;28;20218;-63
2023/05/07 00:14:07;;;;;;;2.43;1.70;;;;;;;;;;5060407;28;20207;-62
2023/05/07 00:16:34;;;;;;;1.77;1.33;;;;;;;;;;5059690;28;20222;-63
2023/05/07 00:19:04;;;;;;;2.43;1.67;;;;;;;;;;5060023;28;20660;-63
2023/05/07 00:21:32;;;;;;;1.63;1.47;;;;;;;;;;5060303;28;20614;-63
2023/05/07 00:24:00;;;;;;;3.37;1.20;;;;;;;;;;5059695;28;20308;-62
2023/05/07 00:26:28;;;;;;;1.73;1.50;;;;;;;;;;5059880;28;20229;-62
2023/05/07 00:28:56;;;;;;;1.67;1.40;;;;;;;;;;5059948;28;20208;-62
2023/05/07 00:31:24;;;;;;;3.37;1.60;;;;;;;;;;5059690;28;20210;-62
2023/05/07 00:33:52;;;;;;;3.20;1.50;;;;;;;;;;5059871;28;20207;-62
2023/05/07 00:36:21;;;;;;;2.77;1.50;;;;;;;;;;5059589;28;20233;-62
2023/05/07 00:38:49;;;;;;;1.60;1.30;;;;;;;;;;5059582;28;20234;-62
2023/05/07 00:41:17;;;;;;;2.07;1.50;;;;;;;;;;5059728;28;20207;-62
2023/05/07 00:43:45;;;;;;;2.40;1.60;;;;;;;;;;5059737;28;20203;-63
2023/05/07 00:46:13;;;;;;;3.37;1.60;;;;;;;;;;5059355;28;20233;-62
2023/05/07 00:48:41;;;;;;;1.30;1.30;;;;;;;;;;5059621;28;20203;-62
2023/05/07 00:51:11;;;;;;;2.47;1.53;;;;;;;;;;5059127;28;20689;-62
2023/05/07 00:53:40;;;;;;;1.60;1.40;;;;;;;;;;5059257;28;20730;-63
2023/05/07 00:56:08;;;;;;;3.70;1.73;;;;;;;;;;5058651;28;20266;-62
2023/05/07 00:58:36;;;;;;;3.33;1.83;;;;;;;;;;5059310;28;20258;-62
2023/05/07 01:01:04;;;;;;;7.03;1.77;;;;;;;;;;5059180;28;20271;-63
2023/05/07 01:03:32;;;;;;;2.63;1.60;;;;;;;;;;5058988;28;20206;-63
2023/05/07 01:06:01;;;;;;;1.90;1.80;;;;;;;;;;5058742;28;20617;-62
2023/05/07 01:08:31;;;;;;;2.80;1.90;;;;;;;;;;5058997;28;20210;-63
2023/05/07 01:11:00;;;;;;;6.93;2.27;;;;;;;;;;5059021;28;20238;-63
2023/05/07 01:13:28;;;;;;;4.60;1.87;;;;;;;;;;5059195;28;20239;-63
2023/05/07 01:15:56;;;;;;;3.33;2.20;;;;;;;;;;5058737;28;20591;-63
2023/05/07 01:18:25;;;;;;;2.30;2.10;;;;;;;;;;5058801;28;20203;-63
2023/05/07 01:20:53;;;;;;;2.30;2.10;;;;;;;;;;5058961;28;20294;-62
2023/05/07 01:23:23;;;;;;;4.53;2.30;;;;;;;;;;5058485;28;20273;-63
2023/05/07 01:25:54;;;;;;;3.37;2.00;;;;;;;;;;5058441;28;20664;-63
2023/05/07 01:28:22;;;;;;;2.37;2.17;;;;;;;;;;5058928;28;20204;-63
2023/05/07 01:30:52;;;;;;;2.53;1.87;;;;;;;;;;5058546;28;20217;-63
2023/05/07 01:33:22;;;;;;;2.20;1.90;;;;;;;;;;5058448;28;20235;-63
2023/05/07 01:35:53;;;;;;;2.90;2.20;;;;;;;;;;5058413;28;20761;-63
2023/05/07 01:38:23;;;;;;;2.43;1.90;;;;;;;;;;5058763;28;20214;-62
2023/05/07 01:40:51;;;;;;;1.70;1.60;;;;;;;;;;5058595;28;20675;-63
2023/05/07 01:43:20;;;;;;;5.63;2.00;;;;;;;;;;5058386;28;20253;-63
2023/05/07 01:45:48;;;;;;;1.90;1.80;;;;;;;;;;5058153;28;20239;-63
2023/05/07 01:48:17;;;;;;;2.47;1.57;;;;;;;;;;5058125;28;20235;-63
2023/05/07 01:50:45;;;;;;;2.47;1.90;;;;;;;;;;5058518;28;20303;-63
2023/05/07 01:53:13;;;;;;;2.97;2.13;;;;;;;;;;5057992;28;20208;-63
2023/05/07 01:55:42;;;;;;;2.67;2.00;;;;;;;;;;5058481;28;20296;-63
2023/05/07 01:58:10;;;;;;;4.67;2.07;;;;;;;;;;5058247;28;20207;-63
2023/05/07 02:00:38;;;;;;;1.77;1.67;;;;;;;;;;5058322;28;20211;-63
2023/05/07 02:03:06;;;;;;;4.10;1.83;;;;;;;;;;5058132;28;20234;-63
2023/05/07 02:05:34;;;;;;;2.10;1.90;;;;;;;;;;5058045;28;20227;-62
2023/05/07 02:08:02;;;;;;;1.83;1.70;;;;;;;;;;5057568;28;20591;-62
2023/05/07 02:10:30;;;;;;;2.53;1.80;;;;;;;;;;5058140;28;20217;-63
2023/05/07 02:13:01;;;;;;;3.00;2.80;;;;;;;;;;5058027;28;20203;-62
2023/05/07 02:15:29;;;;;;;2.80;1.80;;;;;;;;;;5057772;28;20262;-62
2023/05/07 02:18:01;;;;;;;2.20;1.90;;;;;;;;;;5057640;28;20682;-62
2023/05/07 02:20:29;;;;;;;1.90;1.80;;;;;;;;;;5058067;28;20206;-62
2023/05/07 02:22:57;;;;;;;2.70;2.00;;;;;;;;;;5057498;28;20242;-62
2023/05/07 02:25:25;;;;;;;2.53;1.77;;;;;;;;;;5057674;28;20222;-62
2023/05/07 02:27:53;;;;;;;3.90;2.53;;;;;;;;;;5056777;28;20226;-62
2023/05/07 02:30:23;;;;;;;1.50;1.40;;;;;;;;;;5057949;28;20202;-62
2023/05/07 02:32:51;;;;;;;1.93;1.73;;;;;;;;;;5057690;28;20247;-62
2023/05/07 02:35:19;;;;;;;3.00;2.27;;;;;;;;;;5057553;28;20230;-62
2023/05/07 02:37:47;;;;;;;2.40;1.73;;;;;;;;;;5057339;28;20203;-62
2023/05/07 02:40:15;;;;;;;7.50;2.50;;;;;;;;;;5057488;28;20237;-63
2023/05/07 02:42:43;;;;;;;4.97;2.00;;;;;;;;;;5057786;28;20214;-62
2023/05/07 02:45:11;;;;;;;2.40;2.20;;;;;;;;;;5057606;28;20237;-62
2023/05/07 02:47:40;;;;;;;2.23;1.97;;;;;;;;;;5057572;28;20313;-63
2023/05/07 02:50:11;;;;;;;5.57;2.30;;;;;;;;;;5057567;28;20238;-62
2023/05/07 02:52:39;;;;;;;2.70;2.10;;;;;;;;;;5057189;28;20570;-62
2023/05/07 02:55:07;;;;;;;3.03;2.13;;;;;;;;;;5057571;28;20230;-62
2023/05/07 02:57:35;;;;;;;2.20;2.00;;;;;;;;;;5057532;28;20205;-62
2023/05/07 03:00:11;;;;;;;3.00;1.77;;;;;;;;;;5057504;28;20246;-62
2023/05/07 03:02:41;;;;;;;2.90;1.73;;;;;;;;;;5057438;28;20213;-62
2023/05/07 03:05:09;;;;;;;1.73;1.63;;;;;;;;;;5057182;28;20262;-64
2023/05/07 03:07:37;;;;;;;5.97;1.93;;;;;;;;;;5057239;28;20238;-64
2023/05/07 03:10:06;;;;;;;1.60;1.50;;;;;;;;;;5057200;28;20211;-61
2023/05/07 03:12:34;;;;;;;2.23;1.70;;;;;;;;;;5057261;28;20700;-61
2023/05/07 03:15:02;;;;;;;1.60;1.50;;;;;;;;;;5057118;28;20246;-62
2023/05/07 03:17:30;;;;;;;1.50;1.40;;;;;;;;;;5057574;28;20234;-62
2023/05/07 03:19:59;;;;;;;1.60;1.50;;;;;;;;;;5048344;28;20206;-62
2023/05/07 03:22:27;;;;;;;1.27;1.23;;;;;;;;;;5061017;28;20202;-62
2023/05/07 03:24:55;;;;;;;1.93;1.50;;;;;;;;;;5061243;28;20241;-62
2023/05/07 03:27:23;;;;;;;1.60;1.50;;;;;;;;;;5060987;28;20218;-63
2023/05/07 03:29:51;;;;;;;2.00;1.50;;;;;;;;;;5061175;28;20206;-62
2023/05/07 03:32:19;;;;;;;1.77;1.30;;;;;;;;;;5060710;28;20300;-62
2023/05/07 03:34:47;;;;;;;2.53;1.43;;;;;;;;;;5060707;28;20643;-62
2023/05/07 03:37:16;;;;;;;1.63;1.30;;;;;;;;;;5060782;28;20245;-62
2023/05/07 03:39:44;;;;;;;1.80;1.40;;;;;;;;;;5060707;28;20245;-62
2023/05/07 03:42:12;;;;;;;1.50;1.40;;;;;;;;;;5060961;28;20286;-62
2023/05/07 03:44:40;;;;;;;3.27;2.57;;;;;;;;;;5060885;28;20211;-63
2023/05/07 03:47:10;;;;;;;3.43;1.57;;;;;;;;;;5060602;28;20234;-62
2023/05/07 03:49:38;;;;;;;2.60;1.60;;;;;;;;;;5060580;28;20591;-62
2023/05/07 03:52:06;;;;;;;2.43;1.63;;;;;;;;;;5060470;28;20207;-62
2023/05/07 03:54:35;;;;;;;2.17;1.50;;;;;;;;;;5060489;28;20242;-63
2023/05/07 03:57:03;;;;;;;2.13;1.60;;;;;;;;;;5060058;28;20243;-62
2023/05/07 03:59:31;;;;;;;2.07;1.40;;;;;;;;;;5060909;28;20241;-62
2023/05/07 04:01:59;;;;;;;4.83;1.27;;;;;;;;;;5060386;28;20207;-62
2023/05/07 04:04:32;;;;;;;1.67;1.23;;;;;;;;;;5060337;28;20211;-62
2023/05/07 04:07:00;;;;;;;1.20;1.10;;;;;;;;;;5059806;28;20317;-63
2023/05/07 04:09:28;;;;;;;2.30;1.30;;;;;;;;;;5060069;28;20327;-63
2023/05/07 04:11:57;;;;;;;2.30;1.23;;;;;;;;;;5060416;28;20210;-62
2023/05/07 04:14:25;;;;;;;1.50;1.40;;;;;;;;;;5059993;28;20812;-62
2023/05/07 04:16:53;;;;;;;2.03;1.40;;;;;;;;;;5059901;28;20729;-62
2023/05/07 04:19:21;;;;;;;1.77;1.33;;;;;;;;;;5059936;28;20588;-62
2023/05/07 04:21:50;;;;;;;1.17;1.10;;;;;;;;;;5059996;28;20264;-62
2023/05/07 04:24:18;;;;;;;2.67;1.30;;;;;;;;;;5059767;28;20239;-63
2023/05/07 04:26:46;;;;;;;1.37;0.97;;;;;;;;;;5060078;28;20227;-62
2023/05/07 04:29:15;;;;;;;1.30;1.10;;;;;;;;;;5058866;28;20266;-62
2023/05/07 04:31:44;;;;;;;1.27;1.03;;;;;;;;;;5059884;28;20252;-62
2023/05/07 04:34:12;;;;;;;1.00;1.00;;;;;;;;;;5059923;28;20237;-63
2023/05/07 04:36:40;;;;;;;0.97;0.97;;;;;;;;;;5059377;28;20285;-62
2023/05/07 04:39:08;;;;;;;1.47;1.37;;;;;;;;;;5059847;28;20206;-62
2023/05/07 04:41:38;;;;;;;1.53;1.00;;;;;;;;;;5059890;28;20221;-62
2023/05/07 04:44:06;;;;;;;1.20;1.10;;;;;;;;;;5059538;28;20249;-64
2023/05/07 04:46:35;;;;;;;1.10;1.10;;;;;;;;;;5059375;28;20596;-62
2023/05/07 04:49:03;;;;;;;5.50;1.53;;;;;;;;;;5059548;28;20227;-62
2023/05/07 04:51:32;;;;;;;0.97;0.97;;;;;;;;;;5059517;28;20211;-62
2023/05/07 04:54:00;;;;;;;2.50;1.10;;;;;;;;;;5059571;28;20214;-62
2023/05/07 04:56:29;;;;;;;0.97;0.97;;;;;;;;;;5059400;28;20241;-62
2023/05/07 04:58:56;;;;;;;1.40;1.30;;;;;;;;;;5059498;28;20218;-62
2023/05/07 05:01:25;;;;;;;1.23;1.13;;;;;;;;;;5059507;28;20270;-62
2023/05/07 05:03:54;;;;;;;4.73;1.33;;;;;;;;;;5059147;28;20229;-62
2023/05/07 05:06:22;;;;;;;1.20;1.10;;;;;;;;;;5059025;28;20265;-62
2023/05/07 05:08:50;;;;;;;1.30;1.20;;;;;;;;;;5059240;28;20263;-62
2023/05/07 05:11:18;;;;;;;1.20;1.10;;;;;;;;;;5059232;28;20264;-62
2023/05/07 05:13:48;;;;;;;1.70;1.33;;;;;;;;;;5058970;28;20571;-62
2023/05/07 05:16:16;;;;;;;4.30;1.33;;;;;;;;;;5059157;28;20701;-62
2023/05/07 05:18:44;;;;;;;1.10;1.10;;;;;;;;;;5058891;28;20206;-62
2023/05/07 05:21:13;;;;;;;1.33;1.20;;;;;;;;;;5058520;28;20304;-62
2023/05/07 05:23:41;;;;;;;1.37;1.10;;;;;;;;;;5058761;28;20238;-62
2023/05/07 05:26:09;;;;;;;4.20;1.20;;;;;;;;;;5058488;28;20233;-62
2023/05/07 05:28:37;;;;;;;4.17;1.20;;;;;;;;;;5058902;28;20227;-62
2023/05/07 05:31:05;;;;;;;4.40;1.53;;;;;;;;;;5058539;28;20297;-62
2023/05/07 05:33:33;;;;;;;1.27;1.00;;;;;;;;;;5058488;28;20260;-62
2023/05/07 05:36:01;;;;;;;3.70;1.33;;;;;;;;;;5058110;28;20264;-62
2023/05/07 05:38:31;;;;;;;3.20;1.50;;;;;;;;;;5058698;28;20233;-62
2023/05/07 05:40:59;;;;;;;1.33;1.23;;;;;;;;;;5058081;28;20690;-62
2023/05/07 05:43:27;;;;;;;1.30;1.20;;;;;;;;;;5058418;28;20210;-62
2023/05/07 05:45:56;;;;;;;1.43;1.03;;;;;;;;;;5058527;28;20262;-63
2023/05/07 05:48:24;;;;;;;1.30;1.20;;;;;;;;;;5058096;28;20690;-62
2023/05/07 05:50:52;;;;;;;1.33;1.20;;;;;;;;;;5058337;28;20210;-62
2023/05/07 05:53:20;;;;;;;2.70;1.40;;;;;;;;;;5058156;28;20235;-63
2023/05/07 05:55:49;;;;;;;2.33;1.23;;;;;;;;;;5058384;28;20227;-63
2023/05/07 05:58:17;;;;;;;1.20;1.10;;;;;;;;;;5057913;28;20198;-63
2023/05/07 06:00:45;;;;;;;1.20;1.20;;;;;;;;;;5058365;28;20207;-63
2023/05/07 06:03:13;;;;;;;1.60;1.50;;;;;;;;;;5058108;28;20215;-63
2023/05/07 06:05:41;;;;;;;2.63;1.50;;;;;;;;;;5057798;28;20234;-63
2023/05/07 06:08:09;;;;;;;1.30;1.20;;;;;;;;;;5057804;28;20727;-63
2023/05/07 06:10:37;;;;;;;1.30;1.20;;;;;;;;;;5057904;28;20210;-63
2023/05/07 06:13:07;;;;;;;1.80;1.20;;;;;;;;;;5058196;28;20211;-63
2023/05/07 06:15:35;;;;;;;1.53;1.30;;;;;;;;;;5057713;28;20231;-63
2023/05/07 06:18:03;;;;;;;1.77;1.40;;;;;;;;;;5057936;28;20207;-63
2023/05/07 06:20:31;;;;;;;1.67;1.37;;;;;;;;;;5057787;28;20636;-63
2023/05/07 06:22:59;;;;;;;2.60;1.37;;;;;;;;;;5057370;28;20270;-63
2023/05/07 06:25:26;;;;;;;3.87;1.67;;;;;;;;;;5057687;28;20805;-63
2023/05/07 06:27:54;;;;;;;1.10;1.10;;;;;;;;;;5056283;28;20582;-63
2023/05/07 06:30:24;;;;;;;1.83;1.50;;;;;;;;;;5057892;28;20233;-63
2023/05/07 06:32:52;;;;;;;1.97;1.20;;;;;;;;;;5057501;28;20715;-63
2023/05/07 06:35:20;;;;;;;2.20;1.20;;;;;;;;;;5058048;28;20266;-63
2023/05/07 06:37:48;;;;;;;1.50;1.40;;;;;;;;;;5057678;28;20215;-63
2023/05/07 06:40:16;;;;;;;1.40;1.30;;;;;;;;;;5057573;28;20214;-64
2023/05/07 06:42:44;;;;;;;1.30;1.20;;;;;;;;;;5057860;28;20203;-64
2023/05/07 06:45:12;;;;;;;1.10;1.10;;;;;;;;;;5057372;28;20258;-62
2023/05/07 06:47:42;;;;;;;2.87;1.23;;;;;;;;;;5057428;28;20658;-63
2023/05/07 06:50:10;;;;;;;2.30;1.20;;;;;;;;;;5057361;28;20312;-62
2023/05/07 06:52:39;;;;;;;8.37;1.87;;;;;;;;;;5057630;28;20294;-62
2023/05/07 06:55:07;;;;;;;1.57;1.47;;;;;;;;;;5061700;28;20269;-62
2023/05/07 06:57:35;;;;;;;1.57;1.20;;;;;;;;;;5061553;28;20210;-63
2023/05/07 07:00:04;;;;;;;1.50;1.40;;;;;;;;;;5061391;28;20711;-63
2023/05/07 07:02:32;;;;;;;1.90;1.53;;;;;;;;;;5061317;28;20206;-63
2023/05/07 07:05:01;;;;;;;3.07;1.60;;;;;;;;;;5061285;28;20202;-63
2023/05/07 07:07:30;;;;;;;1.57;1.40;;;;;;;;;;5061351;28;20238;-62
2023/05/07 07:09:58;;;;;;;1.47;1.37;;;;;;;;;;5061269;28;20273;-62
2023/05/07 07:12:26;;;;;;;1.53;1.43;;;;;;;;;;5061509;28;20264;-63
2023/05/07 07:14:53;;;;;;;1.80;1.50;;;;;;;;;;5061134;28;20218;-63
2023/05/07 07:17:22;;;;;;;1.83;1.30;;;;;;;;;;5061345;28;20221;-63
2023/05/07 07:19:50;;;;;;;1.63;1.30;;;;;;;;;;5061096;28;20222;-62
2023/05/07 07:22:19;;;;;;;3.10;1.97;;;;;;;;;;5061010;28;20218;-65
2023/05/07 07:24:47;;;;;;;4.13;1.80;;;;;;;;;;5061190;28;20207;-62
2023/05/07 07:27:15;;;;;;;2.90;1.80;;;;;;;;;;5061006;28;20203;-64
2023/05/07 07:29:43;;;;;;;2.70;2.03;;;;;;;;;;5060815;28;20230;-63
2023/05/07 07:32:11;;;;;;;2.63;1.80;;;;;;;;;;5060986;28;20208;-63
2023/05/07 07:34:39;;;;;;;1.87;1.63;;;;;;;;;;5061172;28;20250;-63
2023/05/07 07:37:07;;;;;;;2.23;1.60;;;;;;;;;;5060657;28;20270;-63
2023/05/07 07:39:39;;;;;;;3.37;1.67;;;;;;;;;;5060855;28;20209;-63
2023/05/07 07:42:07;;;;;;;2.03;1.80;;;;;;;;;;5060682;28;20682;-63
2023/05/07 07:44:35;;;;;;;2.00;1.73;;;;;;;;;;5060925;28;20242;-63
2023/05/07 07:47:02;;;;;;;1.53;1.43;;;;;;;;;;5060375;28;20231;-64
2023/05/07 07:49:30;;;;;;;3.13;1.70;;;;;;;;;;5060773;28;20230;-63
2023/05/07 07:51:59;;;;;;;2.03;1.83;;;;;;;;;;5060444;28;20217;-63
2023/05/07 07:54:27;;;;;;;3.43;1.90;;;;;;;;;;5060699;28;20239;-63
2023/05/07 07:56:56;;;;;;;2.30;1.90;;;;;;;;;;5060556;28;20254;-63
2023/05/07 07:59:24;;;;;;;1.83;1.73;;;;;;;;;;5060587;28;20231;-63
2023/05/07 08:01:55;;;;;;;1.60;1.50;;;;;;;;;;5060453;28;20246;-64
2023/05/07 08:04:23;;;;;;;2.93;1.70;;;;;;;;;;5060025;28;20208;-63
2023/05/07 08:06:51;;;;;;;2.17;1.93;;;;;;;;;;5060194;28;20235;-63
2023/05/07 08:09:19;;;;;;;3.33;2.10;;;;;;;;;;5060415;28;20227;-64
2023/05/07 08:11:47;;;;;;;2.07;1.63;;;;;;;;;;5060342;28;20237;-64
2023/05/07 08:14:16;;;;;;;4.20;2.00;;;;;;;;;;5060317;28;20208;-64
2023/05/07 08:16:44;;;;;;;2.07;1.90;;;;;;;;;;5059886;28;20661;-63
2023/05/07 08:19:12;;;;;;;1.67;1.57;;;;;;;;;;5060238;28;20212;-63
2023/05/07 08:21:41;;;;;;;1.80;1.60;;;;;;;;;;5060058;28;20235;-63
2023/05/07 08:24:09;;;;;;;4.50;2.00;;;;;;;;;;5059750;28;20273;-63
2023/05/07 08:26:39;;;;;;;5.37;1.87;;;;;;;;;;5060034;28;20227;-63
2023/05/07 08:29:07;;;;;;;2.17;2.00;;;;;;;;;;5059730;28;20211;-63
2023/05/07 08:31:36;;;;;;;2.33;2.13;;;;;;;;;;5059636;28;20697;-63
2023/05/07 08:34:04;;;;;;;3.03;2.20;;;;;;;;;;5059928;28;20206;-63
2023/05/07 08:36:35;;;;;;;2.87;2.10;;;;;;;;;;5059641;28;20232;-63
2023/05/07 08:39:03;;;;;;;2.37;2.17;;;;;;;;;;5059808;28;20211;-63
2023/05/07 08:41:31;;;;;;;2.30;2.00;;;;;;;;;;5059896;28;20286;-63
2023/05/07 08:44:00;;;;;;;4.97;3.77;;;;;;;;;;5059745;28;20214;-63
2023/05/07 08:46:31;;;;;;;2.67;2.20;;;;;;;;;;5059545;28;20223;-63
2023/05/07 08:49:01;;;;;;;3.23;2.10;;;;;;;;;;5059726;28;20219;-63
2023/05/07 08:51:29;;;;;;;2.30;2.10;;;;;;;;;;5059479;28;20236;-63
2023/05/07 08:53:57;;;;;;;4.37;2.20;;;;;;;;;;5059599;28;20207;-63
2023/05/07 08:56:25;;;;;;;2.80;2.33;;;;;;;;;;5059375;28;20317;-63
2023/05/07 08:58:56;;;;;;;4.53;2.60;;;;;;;;;;5047184;28;20207;-63
2023/05/07 09:01:24;;;;;;;2.87;2.10;;;;;;;;;;5059323;28;20289;-63
2023/05/07 09:03:53;;;;;;;2.63;2.40;;;;;;;;;;5059419;28;20213;-63
2023/05/07 09:06:23;;;;;;;7.73;2.57;;;;;;;;;;5058768;28;20648;-62
2023/05/07 09:08:52;;;;;;;2.93;2.33;;;;;;;;;;5059168;28;20266;-63
2023/05/07 09:11:23;;;;;;;2.13;1.47;;;;;;;;;;5058931;28;20264;-63
2023/05/07 09:13:54;;;;;;;2.77;1.30;;;;;;;;;;5059323;28;20211;-63
2023/05/07 09:16:22;;;;;;;1.30;1.20;;;;;;;;;;5058245;28;20227;-63
2023/05/07 09:18:52;;;;;;;3.73;1.47;;;;;;;;;;5058912;28;20281;-63
2023/05/07 09:21:20;;;;;;;2.50;1.30;;;;;;;;;;5058859;28;20227;-63
2023/05/07 09:23:51;;;;;;;2.03;1.30;;;;;;;;;;5058655;28;20304;-63
2023/05/07 09:26:20;;;;;;;1.37;1.20;;;;;;;;;;5058798;28;20261;-63
2023/05/07 09:28:48;;;;;;;2.47;1.27;;;;;;;;;;5058737;28;20234;-63
2023/05/07 09:31:16;;;;;;;2.13;1.27;;;;;;;;;;5058511;28;20685;-63
2023/05/07 09:33:47;;;;;;;2.63;1.37;;;;;;;;;;5058801;28;20239;-62
2023/05/07 09:36:16;;;;;;;2.10;1.43;;;;;;;;;;5058462;28;20284;-62
2023/05/07 09:38:46;;;;;;;1.30;1.20;;;;;;;;;;5058417;28;20731;-63
2023/05/07 09:41:15;;;;;;;1.53;1.20;;;;;;;;;;5058559;28;20207;-62
2023/05/07 09:43:43;;;;;;;4.37;1.17;;;;;;;;;;5058340;28;20297;-63
2023/05/07 09:46:13;;;;;;;1.47;1.30;;;;;;;;;;5058552;28;20245;-62
2023/05/07 09:48:41;;;;;;;2.43;1.40;;;;;;;;;;5058789;28;20210;-62
2023/05/07 09:51:16;;;;;;;2.23;1.20;;;;;;;;;;5057960;28;20586;-63
2023/05/07 09:53:46;;;;;;;1.40;1.30;;;;;;;;;;5058340;28;20285;-62
2023/05/07 09:56:16;;;;;;;1.10;1.10;;;;;;;;;;5058082;28;20773;-63
2023/05/07 09:58:46;;;;;;;1.20;1.10;;;;;;;;;;5057921;28;20241;-63
2023/05/07 10:01:14;;;;;;;1.43;1.20;;;;;;;;;;5058065;28;20234;-63
2023/05/07 10:03:42;;;;;;;1.37;1.10;;;;;;;;;;5054737;28;20234;-62
2023/05/07 10:06:11;;;;;;;1.70;1.20;;;;;;;;;;5051198;28;20259;-63
2023/05/07 10:08:39;;;;;;;0.97;0.87;;;;;;;;;;5057812;28;20634;-63
2023/05/07 10:11:07;;;;;;;1.40;0.83;;;;;;;;;;5057623;28;20219;-64
2023/05/07 10:13:37;;;;;;;1.17;1.13;;;;;;;;;;5057963;28;20213;-64
2023/05/07 10:16:06;;;;;;;1.20;1.07;;;;;;;;;;5057859;28;20222;-62
2023/05/07 10:18:34;;;;;;;2.23;1.10;;;;;;;;;;5057783;28;20239;-64
2023/05/07 10:21:06;;;;;;;3.47;1.03;;;;;;;;;;5057250;28;20207;-63
2023/05/07 10:23:34;;;;;;;1.30;1.03;;;;;;;;;;5057528;28;20676;-64
2023/05/07 10:26:04;;;;;;;0.97;0.97;;;;;;;;;;5057572;28;20223;-64
2023/05/07 10:28:34;;;;;;;0.80;0.80;;;;;;;;;;5057693;28;20289;-63
2023/05/07 10:31:19;;;;;;;1.30;1.00;;;;;;;;;;5057689;28;20223;-63
2023/05/07 10:33:48;;;;;;;2.30;0.83;;;;;;;;;;5057796;28;20214;-64
2023/05/07 10:36:16;;;;;;;1.10;1.00;;;;;;;;;;5057535;28;20304;-64
2023/05/07 10:38:44;;;;;;;2.13;1.10;;;;;;;;;;5057789;28;20211;-64
2023/05/07 10:41:12;;;;;;;7.63;4.13;;;;;;;;;;5057503;28;20213;-64
2023/05/07 10:43:43;;;;;;;1.93;0.97;;;;;;;;;;5057451;28;20574;-64
2023/05/07 10:46:12;;;;;;;1.73;1.40;;;;;;;;;;5057427;28;20588;-64
2023/05/07 10:48:58;;;;;;;1.37;1.27;;;;;;;;;;5057579;28;20202;-64
2023/05/07 10:51:28;;;;;;;1.10;1.00;;;;;;;;;;5057097;28;20318;-64
2023/05/07 10:54:11;;;;;;;1.63;1.10;;;;;;;;;;5057631;28;20270;-64
2023/05/07 10:56:39;;;;;;;3.00;1.30;;;;;;;;;;5056545;28;20227;-64
2023/05/07 10:59:43;;;;;;;3.77;1.60;;;;;;;;;;5057341;28;20206;-63
2023/05/07 11:02:13;;;;;;;3.47;1.40;;;;;;;;;;4976466;28;20201;-64
2023/05/07 11:04:42;;;;;;;1.40;1.30;;;;;;;;;;4976546;28;20260;-64
2023/05/07 11:07:27;;;;;;;1.63;1.50;;;;;;;;;;5016337;28;20211;-63
2023/05/07 11:10:01;;;;;;;1.90;1.80;;;;;;;;;;5057209;28;20688;-63
2023/05/07 11:12:51;;;;;;;3.13;1.90;;;;;;;;;;5057465;28;20294;-64
2023/05/07 11:15:34;;;;;;;1.83;1.67;;;;;;;;;;5057432;28;20314;-64
2023/05/07 11:18:03;;;;;;;3.57;2.00;;;;;;;;;;5054333;28;20658;-64
2023/05/07 11:21:01;;;;;;;2.47;1.80;;;;;;;;;;5056935;28;20305;-64
2023/05/07 11:23:56;;;;;;;2.87;1.90;;;;;;;;;;5057057;28;20235;-64
2023/05/07 11:26:26;;;;;;;2.23;1.90;;;;;;;;;;5010765;28;20229;-64
2023/05/07 11:28:54;;;;;;;3.40;1.80;;;;;;;;;;5057019;28;20266;-64
2023/05/07 11:31:23;;;;;;;2.50;1.70;;;;;;;;;;5056914;28;20716;-64
2023/05/07 11:33:51;;;;;;;2.43;1.27;;;;;;;;;;5057255;28;20206;-64
2023/05/07 11:36:20;;;;;;;1.90;1.70;;;;;;;;;;5056681;28;20258;-64
2023/05/07 11:38:48;;;;;;;2.20;1.83;;;;;;;;;;5057620;28;20290;-64
2023/05/07 11:41:17;;;;;;;1.57;1.47;;;;;;;;;;5061033;28;20214;-64
2023/05/07 11:43:57;;;;;;;2.97;1.77;;;;;;;;;;5060549;28;20203;-64
2023/05/07 11:46:25;;;;;;;1.80;1.60;;;;;;;;;;5060968;28;20236;-64
2023/05/07 11:48:53;;;;;;;3.17;1.60;;;;;;;;;;5060540;28;20576;-64
2023/05/07 11:51:21;;;;;;;1.70;1.47;;;;;;;;;;5060258;28;20586;-64
2023/05/07 11:53:49;;;;;;;2.23;1.47;;;;;;;;;;5060682;28;20241;-64
2023/05/07 11:56:18;;;;;;;3.30;1.60;;;;;;;;;;5060395;28;20262;-64
2023/05/07 11:58:47;;;;;;;2.17;1.67;;;;;;;;;;5060448;28;20203;-64
2023/05/07 12:01:19;;;;;;;2.90;1.73;;;;;;;;;;5060337;28;20203;-64
2023/05/07 12:03:47;;;;;;;1.80;1.70;;;;;;;;;;5060561;28;20207;-64
2023/05/07 12:06:16;;;;;;;2.20;1.67;;;;;;;;;;5059949;28;20721;-64
2023/05/07 12:08:44;;;;;;;4.87;2.07;;;;;;;;;;5060523;28;20265;-64
2023/05/07 12:11:17;;;;;;;2.90;2.10;;;;;;;;;;5060085;28;20207;-64
2023/05/07 12:13:45;;;;;;;7.10;6.40;;;;;;;;;;5060674;28;20230;-64
2023/05/07 12:16:13;;;;;;;7.27;5.03;;;;;;;;;;5060020;28;20265;-64
2023/05/07 12:18:43;;;;;;;2.73;2.50;;;;;;;;;;5060147;28;20207;-64
2023/05/07 12:21:11;;;;;;;3.10;2.43;;;;;;;;;;5059768;28;20207;-64
2023/05/07 12:23:39;;;;;;;2.30;1.87;;;;;;;;;;5059795;28;20261;-64
2023/05/07 12:26:07;;;;;;;2.20;1.60;;;;;;;;;;5059650;28;20864;-64
2023/05/07 12:28:39;;;;;;;1.93;1.30;;;;;;;;;;5059827;28;20234;-64
2023/05/07 12:31:08;;;;;;;1.43;1.27;;;;;;;;;;5059782;28;20246;-64
2023/05/07 12:33:36;;;;;;;1.50;1.23;;;;;;;;;;5059889;28;20227;-64
2023/05/07 12:36:07;;;;;;;1.77;1.03;;;;;;;;;;5058627;28;20633;-64
2023/05/07 12:38:36;;;;;;;2.80;1.20;;;;;;;;;;5059839;28;20298;-64
2023/05/07 12:41:04;;;;;;;1.00;1.00;;;;;;;;;;5059861;28;20211;-64
2023/05/07 12:43:32;;;;;;;2.47;1.27;;;;;;;;;;5059631;28;20257;-64
2023/05/07 12:46:01;;;;;;;1.87;1.10;;;;;;;;;;5059778;28;20230;-64
2023/05/07 12:48:29;;;;;;;1.40;0.90;;;;;;;;;;5059347;28;20211;-64
2023/05/07 12:50:57;;;;;;;1.17;1.03;;;;;;;;;;5058146;28;20637;-64
2023/05/07 12:53:27;;;;;;;0.80;0.80;;;;;;;;;;5059350;28;20229;-64
2023/05/07 12:55:56;;;;;;;1.70;1.10;;;;;;;;;;5059450;28;20563;-63
2023/05/07 12:58:25;;;;;;;1.80;1.43;;;;;;;;;;5059237;28;20222;-64
2023/05/07 13:00:53;;;;;;;1.60;1.50;;;;;;;;;;5059258;28;20207;-63
2023/05/07 13:03:22;;;;;;;1.87;1.43;;;;;;;;;;5058988;28;20199;-63
2023/05/07 13:05:50;;;;;;;1.20;1.10;;;;;;;;;;5058877;28;20234;-63
2023/05/07 13:08:24;;;;;;;1.30;0.97;;;;;;;;;;5059350;28;20211;-64
2023/05/07 13:10:54;;;;;;;0.93;0.90;;;;;;;;;;5059366;28;20237;-64
2023/05/07 13:13:22;;;;;;;0.93;0.93;;;;;;;;;;5059133;28;20265;-64
2023/05/07 13:15:50;;;;;;;0.90;0.90;;;;;;;;;;5058835;28;20305;-64
2023/05/07 13:18:18;;;;;;;1.80;1.30;;;;;;;;;;5058771;28;20207;-64
2023/05/07 13:20:46;;;;;;;0.90;0.90;;;;;;;;;;5058916;28;20214;-63
2023/05/07 13:23:14;;;;;;;1.17;0.83;;;;;;;;;;5058733;28;20239;-63
2023/05/07 13:25:42;;;;;;;1.60;1.17;;;;;;;;;;5058847;28;20227;-64
2023/05/07 13:28:11;;;;;;;0.80;0.80;;;;;;;;;;5058951;28;20241;-63
2023/05/07 13:30:40;;;;;;;0.80;0.80;;;;;;;;;;5058939;28;20202;-64
2023/05/07 13:33:08;;;;;;;1.10;0.87;;;;;;;;;;5058549;28;20230;-64
2023/05/07 13:35:36;;;;;;;1.90;0.87;;;;;;;;;;5058434;28;20226;-64
2023/05/07 13:38:04;;;;;;;0.80;0.80;;;;;;;;;;5058642;28;20264;-64
2023/05/07 13:40:32;;;;;;;1.17;0.90;;;;;;;;;;5058732;28;20285;-63
2023/05/07 13:43:01;;;;;;;0.83;0.80;;;;;;;;;;5058662;28;20202;-64
2023/05/07 13:45:31;;;;;;;1.00;0.70;;;;;;;;;;5058495;28;20280;-64
2023/05/07 13:47:59;;;;;;;0.97;0.67;;;;;;;;;;5058286;28;20636;-64
2023/05/07 13:50:29;;;;;;;0.77;0.77;;;;;;;;;;5058039;28;20266;-64
2023/05/07 13:52:57;;;;;;;0.40;0.40;;;;;;;;;;5058171;28;20226;-63
2023/05/07 13:55:25;;;;;;;0.63;0.63;;;;;;;;;;5058399;28;20233;-63
2023/05/07 13:57:57;;;;;;;1.70;0.70;;;;;;;;;;5058161;28;20210;-64
2023/05/07 14:00:26;;;;;;;0.60;0.60;;;;;;;;;;5058438;28;20234;-64
2023/05/07 14:02:55;;;;;;;1.00;0.50;;;;;;;;;;5057722;28;20257;-63
2023/05/07 14:05:24;;;;;;;1.00;0.53;;;;;;;;;;5058078;28;20317;-63
2023/05/07 14:07:52;;;;;;;0.50;0.50;;;;;;;;;;5058301;28;20202;-63
2023/05/07 14:10:20;;;;;;;0.80;0.80;;;;;;;;;;5057996;28;20634;-63
2023/05/07 14:12:48;;;;;;;0.47;0.30;;;;;;;;;;5057826;28;20281;-63
2023/05/07 14:15:17;;;;;;;0.40;0.40;;;;;;;;;;5058148;28;20226;-64
2023/05/07 14:17:45;;;;;;;0.40;0.40;;;;;;;;;;5058009;28;20264;-63
2023/05/07 14:20:14;;;;;;;1.70;0.40;;;;;;;;;;5058152;28;20212;-63
2023/05/07 14:22:42;;;;;;;0.47;0.47;;;;;;;;;;5057895;28;20293;-63
2023/05/07 14:25:10;;;;;;;1.07;0.53;;;;;;;;;;5057760;28;20291;-63
2023/05/07 14:27:41;;;;;;;1.40;0.40;;;;;;;;;;5057631;28;20627;-63
2023/05/07 14:30:09;;;;;;;0.40;0.40;;;;;;;;;;5057733;28;20230;-63
2023/05/07 14:32:37;;;;;;;0.30;0.30;;;;;;;;;;5057313;28;20669;-63
2023/05/07 14:35:06;;;;;;;0.40;0.40;;;;;;;;;;5057788;28;20230;-63
2023/05/07 14:37:38;;;;;;;0.30;0.30;;;;;;;;;;5057305;28;20211;-63
2023/05/07 14:40:07;;;;;;;0.63;0.30;;;;;;;;;;5057881;28;20215;-63
2023/05/07 14:42:35;;;;;;;0.50;0.40;;;;;;;;;;5057820;28;20209;-63
2023/05/07 14:45:03;;;;;;;0.47;0.47;;;;;;;;;;5057648;28;20206;-63
2023/05/07 14:47:31;;;;;;;0.50;0.50;;;;;;;;;;5057343;28;20241;-63
2023/05/07 14:50:00;;;;;;;1.07;0.60;;;;;;;;;;5057476;28;20206;-63
2023/05/07 14:52:29;;;;;;;0.30;0.30;;;;;;;;;;5057499;28;20221;-64
2023/05/07 14:54:58;;;;;;;0.57;0.37;;;;;;;;;;5057508;28;20318;-63